sensor_id;sensor_type;location;lat;lon;timestamp;P1;durP1;ratioP1;P2;durP2;ratioP2
2105;SDS011;1059;52.548;13.408;2022-12-07T00:01:52;17.50;;;10.50;;
2105;SDS011;1059;52.548;13.408;2022-12-07T00:04:19;16.17;;;9.77;;
2105;SDS011;1059;52.548;13.408;2022-12-07T00:06:46;16.27;;;9.10;;
2105;SDS011;1059;52.548;13.408;2022-12-07T00:09:17;16.80;;;9.43;;
2105;SDS011;1059;52.548;13.408;2022-12-07T00:11:48;15.47;;;9.80;;
2105;SDS011;1059;52.548;13.408;2022-12-07T00:14:16;16.43;;;10.13;;
2105;SDS011;1059;52.548;13.408;2022-12-07T00:16:44;20.43;;;9.90;;
2105;SDS011;1059;52.548;13.408;2022-12-07T00:19:11;15.17;;;9.90;;
2105;SDS011;1059;52.548;13.408;2022-12-07T00:21:39;13.93;;;8.80;;
2105;SDS011;1059;52.548;13.408;2022-12-07T00:24:06;13.73;;;9.30;;
2105;SDS011;1059;52.548;13.408;2022-12-07T00:26:34;16.83;;;9.53;;
2105;SDS011;1059;52.548;13.408;2022-12-07T00:29:04;15.23;;;9.63;;
2105;SDS011;1059;52.548;13.408;2022-12-07T00:31:33;13.53;;;9.20;;
2105;SDS011;1059;52.548;13.408;2022-12-07T00:34:03;13.80;;;9.40;;
2105;SDS011;1059;52.548;13.408;2022-12-07T00:36:30;13.60;;;9.27;;
2105;SDS011;1059;52.548;13.408;2022-12-07T00:38:57;16.23;;;9.73;;
2105;SDS011;1059;52.548;13.408;2022-12-07T00:41:26;13.60;;;9.90;;
2105;SDS011;1059;52.548;13.408;2022-12-07T00:43:54;14.27;;;9.00;;
2105;SDS011;1059;52.548;13.408;2022-12-07T00:46:22;15.27;;;10.47;;
2105;SDS011;1059;52.548;13.408;2022-12-07T00:48:49;13.23;;;9.60;;
2105;SDS011;1059;52.548;13.408;2022-12-07T00:51:18;13.80;;;9.80;;
2105;SDS011;1059;52.548;13.408;2022-12-07T00:53:46;13.47;;;8.83;;
2105;SDS011;1059;52.548;13.408;2022-12-07T00:56:13;13.23;;;9.70;;
2105;SDS011;1059;52.548;13.408;2022-12-07T00:58:41;14.07;;;9.30;;
2105;SDS011;1059;52.548;13.408;2022-12-07T01:01:09;13.20;;;8.80;;
2105;SDS011;1059;52.548;13.408;2022-12-07T01:03:38;11.13;;;7.67;;
2105;SDS011;1059;52.548;13.408;2022-12-07T01:06:05;13.00;;;8.80;;
2105;SDS011;1059;52.548;13.408;2022-12-07T01:08:32;12.10;;;7.53;;
2105;SDS011;1059;52.548;13.408;2022-12-07T01:10:59;13.13;;;8.87;;
2105;SDS011;1059;52.548;13.408;2022-12-07T01:13:27;12.23;;;7.90;;
2105;SDS011;1059;52.548;13.408;2022-12-07T01:15:56;13.20;;;9.00;;
2105;SDS011;1059;52.548;13.408;2022-12-07T01:18:25;11.93;;;8.23;;
2105;SDS011;1059;52.548;13.408;2022-12-07T01:21:01;12.70;;;8.50;;
2105;SDS011;1059;52.548;13.408;2022-12-07T01:23:29;12.10;;;8.43;;
2105;SDS011;1059;52.548;13.408;2022-12-07T01:25:57;9.27;;;7.23;;
2105;SDS011;1059;52.548;13.408;2022-12-07T01:28:26;12.60;;;8.40;;
2105;SDS011;1059;52.548;13.408;2022-12-07T01:30:56;12.30;;;8.37;;
2105;SDS011;1059;52.548;13.408;2022-12-07T01:33:26;11.47;;;8.03;;
2105;SDS011;1059;52.548;13.408;2022-12-07T01:35:54;10.80;;;8.33;;
2105;SDS011;1059;52.548;13.408;2022-12-07T01:38:22;11.17;;;7.73;;
2105;SDS011;1059;52.548;13.408;2022-12-07T01:40:53;9.77;;;7.30;;
2105;SDS011;1059;52.548;13.408;2022-12-07T01:43:20;11.13;;;7.40;;
2105;SDS011;1059;52.548;13.408;2022-12-07T01:45:49;9.33;;;7.10;;
2105;SDS011;1059;52.548;13.408;2022-12-07T01:48:16;9.20;;;7.13;;
2105;SDS011;1059;52.548;13.408;2022-12-07T01:50:48;10.70;;;8.00;;
2105;SDS011;1059;52.548;13.408;2022-12-07T01:53:18;9.63;;;7.30;;
2105;SDS011;1059;52.548;13.408;2022-12-07T01:55:49;8.93;;;7.30;;
2105;SDS011;1059;52.548;13.408;2022-12-07T01:58:18;9.40;;;6.90;;
2105;SDS011;1059;52.548;13.408;2022-12-07T02:00:46;9.60;;;7.20;;
2105;SDS011;1059;52.548;13.408;2022-12-07T02:03:14;8.03;;;6.70;;
2105;SDS011;1059;52.548;13.408;2022-12-07T02:05:44;8.83;;;6.30;;
2105;SDS011;1059;52.548;13.408;2022-12-07T02:08:14;8.80;;;6.53;;
2105;SDS011;1059;52.548;13.408;2022-12-07T02:10:41;8.57;;;6.80;;
2105;SDS011;1059;52.548;13.408;2022-12-07T02:13:11;10.07;;;6.83;;
2105;SDS011;1059;52.548;13.408;2022-12-07T02:15:44;8.80;;;6.40;;
2105;SDS011;1059;52.548;13.408;2022-12-07T02:18:25;9.33;;;6.30;;
2105;SDS011;1059;52.548;13.408;2022-12-07T02:21:01;10.03;;;7.00;;
2105;SDS011;1059;52.548;13.408;2022-12-07T02:23:40;9.60;;;6.40;;
2105;SDS011;1059;52.548;13.408;2022-12-07T02:26:26;10.47;;;5.83;;
2105;SDS011;1059;52.548;13.408;2022-12-07T02:29:24;8.50;;;6.33;;
2105;SDS011;1059;52.548;13.408;2022-12-07T02:31:55;8.27;;;6.33;;
2105;SDS011;1059;52.548;13.408;2022-12-07T02:34:31;9.73;;;6.13;;
2105;SDS011;1059;52.548;13.408;2022-12-07T02:37:03;7.73;;;6.00;;
2105;SDS011;1059;52.548;13.408;2022-12-07T02:39:37;9.87;;;6.97;;
2105;SDS011;1059;52.548;13.408;2022-12-07T02:42:09;8.50;;;6.30;;
2105;SDS011;1059;52.548;13.408;2022-12-07T02:44:42;8.87;;;6.43;;
2105;SDS011;1059;52.548;13.408;2022-12-07T02:47:12;6.77;;;5.60;;
2105;SDS011;1059;52.548;13.408;2022-12-07T02:49:43;8.87;;;6.47;;
2105;SDS011;1059;52.548;13.408;2022-12-07T02:52:10;9.30;;;7.00;;
2105;SDS011;1059;52.548;13.408;2022-12-07T02:54:37;9.40;;;6.70;;
2105;SDS011;1059;52.548;13.408;2022-12-07T02:57:08;10.50;;;7.27;;
2105;SDS011;1059;52.548;13.408;2022-12-07T02:59:50;10.13;;;6.83;;
2105;SDS011;1059;52.548;13.408;2022-12-07T03:02:28;9.87;;;6.47;;
2105;SDS011;1059;52.548;13.408;2022-12-07T03:05:05;9.80;;;7.90;;
2105;SDS011;1059;52.548;13.408;2022-12-07T03:07:51;9.40;;;7.00;;
2105;SDS011;1059;52.548;13.408;2022-12-07T03:10:27;10.63;;;6.57;;
2105;SDS011;1059;52.548;13.408;2022-12-07T03:13:02;10.13;;;7.97;;
2105;SDS011;1059;52.548;13.408;2022-12-07T03:15:39;10.20;;;7.30;;
2105;SDS011;1059;52.548;13.408;2022-12-07T03:18:09;8.73;;;6.80;;
2105;SDS011;1059;52.548;13.408;2022-12-07T03:20:38;9.87;;;7.77;;
2105;SDS011;1059;52.548;13.408;2022-12-07T03:23:08;10.13;;;6.90;;
2105;SDS011;1059;52.548;13.408;2022-12-07T03:25:38;9.87;;;8.07;;
2105;SDS011;1059;52.548;13.408;2022-12-07T03:28:06;14.00;;;8.70;;
2105;SDS011;1059;52.548;13.408;2022-12-07T03:30:35;12.17;;;8.10;;
2105;SDS011;1059;52.548;13.408;2022-12-07T03:33:09;14.30;;;9.20;;
2105;SDS011;1059;52.548;13.408;2022-12-07T03:35:39;11.53;;;8.33;;
2105;SDS011;1059;52.548;13.408;2022-12-07T03:38:12;12.87;;;9.03;;
2105;SDS011;1059;52.548;13.408;2022-12-07T03:40:43;14.77;;;9.77;;
2105;SDS011;1059;52.548;13.408;2022-12-07T03:43:15;14.80;;;9.70;;
2105;SDS011;1059;52.548;13.408;2022-12-07T03:45:47;14.53;;;9.37;;
2105;SDS011;1059;52.548;13.408;2022-12-07T03:48:24;13.80;;;9.00;;
2105;SDS011;1059;52.548;13.408;2022-12-07T03:50:55;14.33;;;10.07;;
2105;SDS011;1059;52.548;13.408;2022-12-07T03:53:28;15.03;;;10.17;;
2105;SDS011;1059;52.548;13.408;2022-12-07T03:56:00;16.73;;;9.40;;
2105;SDS011;1059;52.548;13.408;2022-12-07T03:58:29;14.30;;;9.67;;
2105;SDS011;1059;52.548;13.408;2022-12-07T04:00:58;16.97;;;9.53;;
2105;SDS011;1059;52.548;13.408;2022-12-07T04:03:25;15.40;;;9.57;;
2105;SDS011;1059;52.548;13.408;2022-12-07T04:05:52;15.10;;;10.47;;
2105;SDS011;1059;52.548;13.408;2022-12-07T04:08:19;16.47;;;9.80;;
2105;SDS011;1059;52.548;13.408;2022-12-07T04:10:46;16.43;;;10.97;;
2105;SDS011;1059;52.548;13.408;2022-12-07T04:13:13;15.10;;;10.57;;
2105;SDS011;1059;52.548;13.408;2022-12-07T04:15:40;15.67;;;11.23;;
2105;SDS011;1059;52.548;13.408;2022-12-07T04:18:08;19.57;;;10.87;;
2105;SDS011;1059;52.548;13.408;2022-12-07T04:20:35;18.10;;;11.00;;
2105;SDS011;1059;52.548;13.408;2022-12-07T04:23:02;17.53;;;11.60;;
2105;SDS011;1059;52.548;13.408;2022-12-07T04:25:29;17.57;;;11.50;;
2105;SDS011;1059;52.548;13.408;2022-12-07T04:27:55;17.17;;;11.33;;
2105;SDS011;1059;52.548;13.408;2022-12-07T04:30:22;18.57;;;12.47;;
2105;SDS011;1059;52.548;13.408;2022-12-07T04:32:49;19.80;;;12.00;;
2105;SDS011;1059;52.548;13.408;2022-12-07T04:35:17;23.00;;;12.17;;
2105;SDS011;1059;52.548;13.408;2022-12-07T04:37:44;19.93;;;11.50;;
2105;SDS011;1059;52.548;13.408;2022-12-07T04:40:11;17.83;;;11.30;;
2105;SDS011;1059;52.548;13.408;2022-12-07T04:42:39;18.07;;;11.97;;
2105;SDS011;1059;52.548;13.408;2022-12-07T04:45:06;18.57;;;12.17;;
2105;SDS011;1059;52.548;13.408;2022-12-07T04:47:34;19.97;;;12.00;;
2105;SDS011;1059;52.548;13.408;2022-12-07T04:50:01;19.03;;;12.83;;
2105;SDS011;1059;52.548;13.408;2022-12-07T04:52:29;18.47;;;12.27;;
2105;SDS011;1059;52.548;13.408;2022-12-07T04:54:56;20.90;;;12.73;;
2105;SDS011;1059;52.548;13.408;2022-12-07T04:57:22;23.77;;;13.20;;
2105;SDS011;1059;52.548;13.408;2022-12-07T04:59:49;24.63;;;14.83;;
2105;SDS011;1059;52.548;13.408;2022-12-07T05:02:16;24.30;;;13.57;;
2105;SDS011;1059;52.548;13.408;2022-12-07T05:04:43;22.87;;;15.37;;
2105;SDS011;1059;52.548;13.408;2022-12-07T05:07:10;22.67;;;13.40;;
2105;SDS011;1059;52.548;13.408;2022-12-07T05:09:38;24.73;;;15.10;;
2105;SDS011;1059;52.548;13.408;2022-12-07T05:12:05;24.17;;;14.97;;
2105;SDS011;1059;52.548;13.408;2022-12-07T05:14:31;24.40;;;15.23;;
2105;SDS011;1059;52.548;13.408;2022-12-07T05:16:58;26.70;;;14.90;;
2105;SDS011;1059;52.548;13.408;2022-12-07T05:19:25;33.57;;;18.60;;
2105;SDS011;1059;52.548;13.408;2022-12-07T05:21:52;31.77;;;17.37;;
2105;SDS011;1059;52.548;13.408;2022-12-07T05:24:19;26.93;;;17.27;;
2105;SDS011;1059;52.548;13.408;2022-12-07T05:26:47;28.47;;;16.30;;
2105;SDS011;1059;52.548;13.408;2022-12-07T05:29:14;30.83;;;17.20;;
2105;SDS011;1059;52.548;13.408;2022-12-07T05:31:43;32.83;;;17.67;;
2105;SDS011;1059;52.548;13.408;2022-12-07T05:34:10;33.60;;;17.20;;
2105;SDS011;1059;52.548;13.408;2022-12-07T05:36:37;32.63;;;17.70;;
2105;SDS011;1059;52.548;13.408;2022-12-07T05:39:04;35.20;;;18.77;;
2105;SDS011;1059;52.548;13.408;2022-12-07T05:41:32;35.10;;;18.40;;
2105;SDS011;1059;52.548;13.408;2022-12-07T05:44:17;32.70;;;18.90;;
2105;SDS011;1059;52.548;13.408;2022-12-07T05:46:44;41.97;;;21.07;;
2105;SDS011;1059;52.548;13.408;2022-12-07T05:49:11;30.77;;;17.80;;
2105;SDS011;1059;52.548;13.408;2022-12-07T05:51:38;36.30;;;18.60;;
2105;SDS011;1059;52.548;13.408;2022-12-07T05:54:05;37.87;;;18.97;;
2105;SDS011;1059;52.548;13.408;2022-12-07T05:56:31;34.80;;;18.57;;
2105;SDS011;1059;52.548;13.408;2022-12-07T05:58:58;31.63;;;18.43;;
2105;SDS011;1059;52.548;13.408;2022-12-07T06:01:44;35.37;;;18.90;;
2105;SDS011;1059;52.548;13.408;2022-12-07T06:04:11;33.47;;;18.57;;
2105;SDS011;1059;52.548;13.408;2022-12-07T06:06:38;37.37;;;18.57;;
2105;SDS011;1059;52.548;13.408;2022-12-07T06:09:05;32.70;;;18.20;;
2105;SDS011;1059;52.548;13.408;2022-12-07T06:11:31;34.00;;;18.50;;
2105;SDS011;1059;52.548;13.408;2022-12-07T06:14:16;31.77;;;17.97;;
2105;SDS011;1059;52.548;13.408;2022-12-07T06:16:45;33.43;;;17.10;;
2105;SDS011;1059;52.548;13.408;2022-12-07T06:19:12;28.03;;;15.70;;
2105;SDS011;1059;52.548;13.408;2022-12-07T06:21:38;33.60;;;17.67;;
2105;SDS011;1059;52.548;13.408;2022-12-07T06:24:06;36.57;;;20.13;;
2105;SDS011;1059;52.548;13.408;2022-12-07T06:26:33;35.10;;;18.50;;
2105;SDS011;1059;52.548;13.408;2022-12-07T06:28:59;34.60;;;17.63;;
2105;SDS011;1059;52.548;13.408;2022-12-07T06:31:26;32.23;;;17.83;;
2105;SDS011;1059;52.548;13.408;2022-12-07T06:33:58;25.50;;;16.30;;
2105;SDS011;1059;52.548;13.408;2022-12-07T06:36:24;30.53;;;16.20;;
2105;SDS011;1059;52.548;13.408;2022-12-07T06:38:51;27.50;;;15.83;;
2105;SDS011;1059;52.548;13.408;2022-12-07T06:41:18;32.80;;;16.87;;
2105;SDS011;1059;52.548;13.408;2022-12-07T06:43:45;29.17;;;17.87;;
2105;SDS011;1059;52.548;13.408;2022-12-07T06:46:12;36.40;;;16.47;;
2105;SDS011;1059;52.548;13.408;2022-12-07T06:48:39;29.90;;;16.90;;
2105;SDS011;1059;52.548;13.408;2022-12-07T06:51:07;35.30;;;18.80;;
2105;SDS011;1059;52.548;13.408;2022-12-07T06:53:34;31.40;;;17.63;;
2105;SDS011;1059;52.548;13.408;2022-12-07T06:56:02;28.53;;;16.20;;
2105;SDS011;1059;52.548;13.408;2022-12-07T06:58:29;37.30;;;17.60;;
2105;SDS011;1059;52.548;13.408;2022-12-07T07:00:56;27.90;;;17.20;;
2105;SDS011;1059;52.548;13.408;2022-12-07T07:03:23;32.80;;;18.73;;
2105;SDS011;1059;52.548;13.408;2022-12-07T07:05:50;31.27;;;17.00;;
2105;SDS011;1059;52.548;13.408;2022-12-07T07:08:18;32.43;;;18.70;;
2105;SDS011;1059;52.548;13.408;2022-12-07T07:10:45;36.77;;;18.97;;
2105;SDS011;1059;52.548;13.408;2022-12-07T07:13:12;38.97;;;18.57;;
2105;SDS011;1059;52.548;13.408;2022-12-07T07:15:39;36.50;;;18.00;;
2105;SDS011;1059;52.548;13.408;2022-12-07T07:18:05;35.27;;;19.13;;
2105;SDS011;1059;52.548;13.408;2022-12-07T07:20:32;33.27;;;19.43;;
2105;SDS011;1059;52.548;13.408;2022-12-07T07:22:59;44.87;;;20.40;;
2105;SDS011;1059;52.548;13.408;2022-12-07T07:25:28;35.37;;;18.83;;
2105;SDS011;1059;52.548;13.408;2022-12-07T07:27:55;40.07;;;19.80;;
2105;SDS011;1059;52.548;13.408;2022-12-07T07:30:22;27.87;;;16.83;;
2105;SDS011;1059;52.548;13.408;2022-12-07T07:32:48;31.93;;;19.20;;
2105;SDS011;1059;52.548;13.408;2022-12-07T07:35:15;32.17;;;17.97;;
2105;SDS011;1059;52.548;13.408;2022-12-07T07:37:43;27.77;;;16.17;;
2105;SDS011;1059;52.548;13.408;2022-12-07T07:40:10;28.90;;;15.40;;
2105;SDS011;1059;52.548;13.408;2022-12-07T07:42:38;37.40;;;16.47;;
2105;SDS011;1059;52.548;13.408;2022-12-07T07:45:06;24.60;;;15.20;;
2105;SDS011;1059;52.548;13.408;2022-12-07T07:47:33;29.00;;;16.80;;
2105;SDS011;1059;52.548;13.408;2022-12-07T07:50:00;21.23;;;14.00;;
2105;SDS011;1059;52.548;13.408;2022-12-07T07:52:27;23.33;;;13.30;;
2105;SDS011;1059;52.548;13.408;2022-12-07T07:54:54;22.47;;;12.87;;
2105;SDS011;1059;52.548;13.408;2022-12-07T07:57:21;21.80;;;12.53;;
2105;SDS011;1059;52.548;13.408;2022-12-07T07:59:49;18.97;;;11.90;;
2105;SDS011;1059;52.548;13.408;2022-12-07T08:02:17;20.63;;;12.00;;
2105;SDS011;1059;52.548;13.408;2022-12-07T08:04:45;21.17;;;12.10;;
2105;SDS011;1059;52.548;13.408;2022-12-07T08:07:12;16.07;;;10.70;;
2105;SDS011;1059;52.548;13.408;2022-12-07T08:09:40;15.90;;;9.77;;
2105;SDS011;1059;52.548;13.408;2022-12-07T08:12:08;13.77;;;10.17;;
2105;SDS011;1059;52.548;13.408;2022-12-07T08:14:34;13.40;;;9.47;;
2105;SDS011;1059;52.548;13.408;2022-12-07T08:17:03;13.37;;;9.60;;
2105;SDS011;1059;52.548;13.408;2022-12-07T08:19:29;15.17;;;9.10;;
2105;SDS011;1059;52.548;13.408;2022-12-07T08:21:56;12.43;;;9.70;;
2105;SDS011;1059;52.548;13.408;2022-12-07T08:24:23;12.87;;;7.77;;
2105;SDS011;1059;52.548;13.408;2022-12-07T08:26:51;13.50;;;8.37;;
2105;SDS011;1059;52.548;13.408;2022-12-07T08:29:17;13.10;;;7.60;;
2105;SDS011;1059;52.548;13.408;2022-12-07T08:31:44;10.90;;;6.80;;
2105;SDS011;1059;52.548;13.408;2022-12-07T08:34:13;10.60;;;6.97;;
2105;SDS011;1059;52.548;13.408;2022-12-07T08:36:40;10.33;;;5.90;;
2105;SDS011;1059;52.548;13.408;2022-12-07T08:39:07;11.57;;;6.77;;
2105;SDS011;1059;52.548;13.408;2022-12-07T08:41:34;10.67;;;5.93;;
2105;SDS011;1059;52.548;13.408;2022-12-07T08:44:01;7.43;;;5.60;;
2105;SDS011;1059;52.548;13.408;2022-12-07T08:46:28;7.10;;;5.23;;
2105;SDS011;1059;52.548;13.408;2022-12-07T08:49:02;6.07;;;5.27;;
2105;SDS011;1059;52.548;13.408;2022-12-07T08:51:32;5.50;;;4.80;;
2105;SDS011;1059;52.548;13.408;2022-12-07T08:53:59;8.37;;;5.63;;
2105;SDS011;1059;52.548;13.408;2022-12-07T08:56:29;6.30;;;4.83;;
2105;SDS011;1059;52.548;13.408;2022-12-07T08:58:56;5.27;;;4.63;;
2105;SDS011;1059;52.548;13.408;2022-12-07T09:01:23;4.77;;;4.23;;
2105;SDS011;1059;52.548;13.408;2022-12-07T09:03:50;4.00;;;3.50;;
2105;SDS011;1059;52.548;13.408;2022-12-07T09:06:17;4.47;;;3.37;;
2105;SDS011;1059;52.548;13.408;2022-12-07T09:08:47;4.50;;;3.77;;
2105;SDS011;1059;52.548;13.408;2022-12-07T09:11:19;6.53;;;4.10;;
2105;SDS011;1059;52.548;13.408;2022-12-07T09:13:45;4.00;;;3.60;;
2105;SDS011;1059;52.548;13.408;2022-12-07T09:16:12;5.03;;;3.57;;
2105;SDS011;1059;52.548;13.408;2022-12-07T09:18:39;4.63;;;3.70;;
2105;SDS011;1059;52.548;13.408;2022-12-07T09:21:06;3.13;;;2.83;;
2105;SDS011;1059;52.548;13.408;2022-12-07T09:23:34;3.40;;;2.90;;
2105;SDS011;1059;52.548;13.408;2022-12-07T09:26:03;3.20;;;2.87;;
2105;SDS011;1059;52.548;13.408;2022-12-07T09:28:30;3.30;;;3.00;;
2105;SDS011;1059;52.548;13.408;2022-12-07T09:30:57;3.70;;;2.80;;
2105;SDS011;1059;52.548;13.408;2022-12-07T09:33:24;3.20;;;2.73;;
2105;SDS011;1059;52.548;13.408;2022-12-07T09:35:51;2.93;;;2.63;;
2105;SDS011;1059;52.548;13.408;2022-12-07T09:38:19;4.00;;;3.50;;
2105;SDS011;1059;52.548;13.408;2022-12-07T09:40:46;3.40;;;3.10;;
2105;SDS011;1059;52.548;13.408;2022-12-07T09:43:16;3.10;;;2.80;;
2105;SDS011;1059;52.548;13.408;2022-12-07T09:45:45;3.43;;;3.13;;
2105;SDS011;1059;52.548;13.408;2022-12-07T09:48:17;5.00;;;2.90;;
2105;SDS011;1059;52.548;13.408;2022-12-07T09:50:47;4.27;;;3.30;;
2105;SDS011;1059;52.548;13.408;2022-12-07T09:53:16;3.40;;;2.53;;
2105;SDS011;1059;52.548;13.408;2022-12-07T09:55:48;2.70;;;2.50;;
2105;SDS011;1059;52.548;13.408;2022-12-07T09:58:19;2.97;;;2.67;;
2105;SDS011;1059;52.548;13.408;2022-12-07T10:00:48;3.30;;;2.93;;
2105;SDS011;1059;52.548;13.408;2022-12-07T10:03:16;3.07;;;2.73;;
2105;SDS011;1059;52.548;13.408;2022-12-07T10:05:44;3.47;;;2.90;;
2105;SDS011;1059;52.548;13.408;2022-12-07T10:08:13;9.53;;;3.30;;
2105;SDS011;1059;52.548;13.408;2022-12-07T10:10:42;3.80;;;2.70;;
2105;SDS011;1059;52.548;13.408;2022-12-07T10:13:11;3.10;;;2.80;;
2105;SDS011;1059;52.548;13.408;2022-12-07T10:15:45;2.87;;;2.67;;
2105;SDS011;1059;52.548;13.408;2022-12-07T10:18:18;3.03;;;2.73;;
2105;SDS011;1059;52.548;13.408;2022-12-07T10:20:47;3.80;;;3.10;;
2105;SDS011;1059;52.548;13.408;2022-12-07T10:23:15;4.07;;;2.80;;
2105;SDS011;1059;52.548;13.408;2022-12-07T10:25:44;3.70;;;3.17;;
2105;SDS011;1059;52.548;13.408;2022-12-07T10:28:14;3.17;;;2.87;;
2105;SDS011;1059;52.548;13.408;2022-12-07T10:30:47;3.23;;;2.93;;
2105;SDS011;1059;52.548;13.408;2022-12-07T10:33:33;3.10;;;2.80;;
2105;SDS011;1059;52.548;13.408;2022-12-07T10:36:15;3.53;;;2.70;;
2105;SDS011;1059;52.548;13.408;2022-12-07T10:38:45;2.60;;;2.40;;
2105;SDS011;1059;52.548;13.408;2022-12-07T10:41:13;5.00;;;2.40;;
2105;SDS011;1059;52.548;13.408;2022-12-07T10:43:46;4.30;;;2.80;;
2105;SDS011;1059;52.548;13.408;2022-12-07T10:46:22;2.50;;;2.30;;
2105;SDS011;1059;52.548;13.408;2022-12-07T10:49:07;3.37;;;2.73;;
2105;SDS011;1059;52.548;13.408;2022-12-07T10:51:52;6.00;;;2.93;;
2105;SDS011;1059;52.548;13.408;2022-12-07T10:54:28;4.30;;;2.60;;
2105;SDS011;1059;52.548;13.408;2022-12-07T10:57:06;3.43;;;2.97;;
2105;SDS011;1059;52.548;13.408;2022-12-07T11:02:43;4.20;;;3.50;;
2105;SDS011;1059;52.548;13.408;2022-12-07T11:05:30;4.20;;;3.60;;
2105;SDS011;1059;52.548;13.408;2022-12-07T11:08:05;2.93;;;2.63;;
2105;SDS011;1059;52.548;13.408;2022-12-07T11:10:43;5.17;;;3.70;;
2105;SDS011;1059;52.548;13.408;2022-12-07T11:13:18;4.00;;;3.60;;
2105;SDS011;1059;52.548;13.408;2022-12-07T11:15:54;4.30;;;3.27;;
2105;SDS011;1059;52.548;13.408;2022-12-07T11:18:34;5.33;;;4.10;;
2105;SDS011;1059;52.548;13.408;2022-12-07T11:21:12;5.10;;;4.30;;
2105;SDS011;1059;52.548;13.408;2022-12-07T11:23:48;3.90;;;3.60;;
2105;SDS011;1059;52.548;13.408;2022-12-07T11:26:23;4.40;;;4.00;;
2105;SDS011;1059;52.548;13.408;2022-12-07T11:29:09;6.60;;;4.00;;
2105;SDS011;1059;52.548;13.408;2022-12-07T11:31:51;5.00;;;4.10;;
2105;SDS011;1059;52.548;13.408;2022-12-07T11:34:31;4.80;;;4.10;;
2105;SDS011;1059;52.548;13.408;2022-12-07T11:37:07;5.43;;;3.80;;
2105;SDS011;1059;52.548;13.408;2022-12-07T11:39:40;7.60;;;4.27;;
2105;SDS011;1059;52.548;13.408;2022-12-07T11:42:12;5.60;;;4.43;;
2105;SDS011;1059;52.548;13.408;2022-12-07T11:44:45;4.13;;;3.60;;
2105;SDS011;1059;52.548;13.408;2022-12-07T11:47:20;5.80;;;4.33;;
2105;SDS011;1059;52.548;13.408;2022-12-07T11:49:55;6.27;;;3.93;;
2105;SDS011;1059;52.548;13.408;2022-12-07T11:52:30;5.47;;;4.80;;
2105;SDS011;1059;52.548;13.408;2022-12-07T11:55:05;7.10;;;4.30;;
2105;SDS011;1059;52.548;13.408;2022-12-07T11:57:45;5.50;;;4.70;;
2105;SDS011;1059;52.548;13.408;2022-12-07T12:00:15;6.53;;;5.10;;
2105;SDS011;1059;52.548;13.408;2022-12-07T12:02:44;5.30;;;4.50;;
2105;SDS011;1059;52.548;13.408;2022-12-07T12:05:19;5.03;;;4.50;;
2105;SDS011;1059;52.548;13.408;2022-12-07T12:07:49;5.83;;;4.53;;
2105;SDS011;1059;52.548;13.408;2022-12-07T12:10:24;5.43;;;4.90;;
2105;SDS011;1059;52.548;13.408;2022-12-07T12:16:03;9.13;;;4.80;;
2105;SDS011;1059;52.548;13.408;2022-12-07T12:18:47;8.90;;;5.20;;
2105;SDS011;1059;52.548;13.408;2022-12-07T12:21:27;6.03;;;4.93;;
2105;SDS011;1059;52.548;13.408;2022-12-07T12:23:56;6.50;;;4.50;;
2105;SDS011;1059;52.548;13.408;2022-12-07T12:26:26;13.73;;;6.00;;
2105;SDS011;1059;52.548;13.408;2022-12-07T12:28:55;10.80;;;5.60;;
2105;SDS011;1059;52.548;13.408;2022-12-07T12:31:32;7.60;;;5.07;;
2105;SDS011;1059;52.548;13.408;2022-12-07T12:34:02;8.70;;;4.10;;
2105;SDS011;1059;52.548;13.408;2022-12-07T12:36:45;5.37;;;4.40;;
2105;SDS011;1059;52.548;13.408;2022-12-07T12:39:13;5.00;;;3.53;;
2105;SDS011;1059;52.548;13.408;2022-12-07T12:41:51;4.83;;;4.37;;
2105;SDS011;1059;52.548;13.408;2022-12-07T12:44:41;5.70;;;3.63;;
2105;SDS011;1059;52.548;13.408;2022-12-07T12:50:20;5.53;;;3.20;;
2105;SDS011;1059;52.548;13.408;2022-12-07T12:53:11;6.60;;;3.50;;
2105;SDS011;1059;52.548;13.408;2022-12-07T12:58:50;4.30;;;3.30;;
2105;SDS011;1059;52.548;13.408;2022-12-07T13:01:53;3.57;;;3.10;;
2105;SDS011;1059;52.548;13.408;2022-12-07T13:04:27;4.53;;;3.30;;
2105;SDS011;1059;52.548;13.408;2022-12-07T13:07:12;5.77;;;3.23;;
2105;SDS011;1059;52.548;13.408;2022-12-07T13:10:01;4.97;;;3.30;;
2105;SDS011;1059;52.548;13.408;2022-12-07T13:12:29;3.87;;;3.00;;
2105;SDS011;1059;52.548;13.408;2022-12-07T13:14:57;8.20;;;3.20;;
2105;SDS011;1059;52.548;13.408;2022-12-07T13:20:40;9.60;;;3.70;;
2105;SDS011;1059;52.548;13.408;2022-12-07T13:23:10;5.97;;;3.10;;
2105;SDS011;1059;52.548;13.408;2022-12-07T13:25:46;4.60;;;3.37;;
2105;SDS011;1059;52.548;13.408;2022-12-07T13:28:18;4.73;;;2.93;;
2105;SDS011;1059;52.548;13.408;2022-12-07T13:30:49;6.70;;;3.50;;
2105;SDS011;1059;52.548;13.408;2022-12-07T13:33:39;8.23;;;3.93;;
2105;SDS011;1059;52.548;13.408;2022-12-07T13:36:10;7.20;;;3.47;;
2105;SDS011;1059;52.548;13.408;2022-12-07T13:38:48;4.70;;;3.50;;
2105;SDS011;1059;52.548;13.408;2022-12-07T13:41:21;5.70;;;2.87;;
2105;SDS011;1059;52.548;13.408;2022-12-07T13:43:51;6.00;;;3.23;;
2105;SDS011;1059;52.548;13.408;2022-12-07T13:46:22;8.37;;;3.03;;
2105;SDS011;1059;52.548;13.408;2022-12-07T13:48:53;7.03;;;3.20;;
2105;SDS011;1059;52.548;13.408;2022-12-07T13:51:21;10.33;;;2.93;;
2105;SDS011;1059;52.548;13.408;2022-12-07T13:54:01;10.87;;;3.27;;
2105;SDS011;1059;52.548;13.408;2022-12-07T13:56:37;5.90;;;2.90;;
2105;SDS011;1059;52.548;13.408;2022-12-07T13:59:04;8.10;;;3.30;;
2105;SDS011;1059;52.548;13.408;2022-12-07T14:01:36;2.77;;;2.53;;
2105;SDS011;1059;52.548;13.408;2022-12-07T14:04:19;4.97;;;2.80;;
2105;SDS011;1059;52.548;13.408;2022-12-07T14:06:58;10.70;;;3.27;;
2105;SDS011;1059;52.548;13.408;2022-12-07T14:09:26;5.80;;;2.43;;
2105;SDS011;1059;52.548;13.408;2022-12-07T14:11:56;6.87;;;2.70;;
2105;SDS011;1059;52.548;13.408;2022-12-07T14:14:25;11.33;;;2.93;;
2105;SDS011;1059;52.548;13.408;2022-12-07T14:16:56;4.80;;;3.60;;
2105;SDS011;1059;52.548;13.408;2022-12-07T14:19:46;4.60;;;2.83;;
2105;SDS011;1059;52.548;13.408;2022-12-07T14:22:25;10.37;;;2.70;;
2105;SDS011;1059;52.548;13.408;2022-12-07T14:24:58;5.50;;;3.27;;
2105;SDS011;1059;52.548;13.408;2022-12-07T14:27:32;6.27;;;2.80;;
2105;SDS011;1059;52.548;13.408;2022-12-07T14:30:01;8.33;;;3.30;;
2105;SDS011;1059;52.548;13.408;2022-12-07T14:32:29;6.40;;;3.10;;
2105;SDS011;1059;52.548;13.408;2022-12-07T14:34:58;6.87;;;2.20;;
2105;SDS011;1059;52.548;13.408;2022-12-07T14:37:27;2.73;;;2.53;;
2105;SDS011;1059;52.548;13.408;2022-12-07T14:39:56;8.70;;;3.27;;
2105;SDS011;1059;52.548;13.408;2022-12-07T14:42:23;8.77;;;3.20;;
2105;SDS011;1059;52.548;13.408;2022-12-07T14:44:56;6.00;;;3.50;;
2105;SDS011;1059;52.548;13.408;2022-12-07T14:47:23;5.37;;;3.93;;
2105;SDS011;1059;52.548;13.408;2022-12-07T14:49:51;7.83;;;3.17;;
2105;SDS011;1059;52.548;13.408;2022-12-07T14:52:21;5.70;;;4.50;;
2105;SDS011;1059;52.548;13.408;2022-12-07T14:54:50;4.00;;;3.23;;
2105;SDS011;1059;52.548;13.408;2022-12-07T14:57:17;4.87;;;3.30;;
2105;SDS011;1059;52.548;13.408;2022-12-07T14:59:44;9.53;;;4.00;;
2105;SDS011;1059;52.548;13.408;2022-12-07T15:02:12;8.17;;;4.43;;
2105;SDS011;1059;52.548;13.408;2022-12-07T15:04:40;4.23;;;3.20;;
2105;SDS011;1059;52.548;13.408;2022-12-07T15:07:10;8.63;;;3.70;;
2105;SDS011;1059;52.548;13.408;2022-12-07T15:09:42;3.97;;;2.87;;
2105;SDS011;1059;52.548;13.408;2022-12-07T15:12:09;5.53;;;3.53;;
2105;SDS011;1059;52.548;13.408;2022-12-07T15:14:36;7.33;;;4.17;;
2105;SDS011;1059;52.548;13.408;2022-12-07T15:17:03;12.87;;;3.27;;
2105;SDS011;1059;52.548;13.408;2022-12-07T15:19:31;8.53;;;3.17;;
2105;SDS011;1059;52.548;13.408;2022-12-07T15:21:58;6.50;;;3.70;;
2105;SDS011;1059;52.548;13.408;2022-12-07T15:24:25;4.10;;;2.83;;
2105;SDS011;1059;52.548;13.408;2022-12-07T15:26:52;7.17;;;3.17;;